createdAt,value
2022-09-04T00:00:07.995Z,60.49
2022-09-04T00:02:48.485Z,60.99
2022-09-04T00:05:22.005Z,61.17
2022-09-04T00:08:04.670Z,61.42
2022-09-04T00:10:39.777Z,61.31
2022-09-04T00:13:12.367Z,61.48
2022-09-04T00:15:45.211Z,61.46
2022-09-04T00:18:18.155Z,61.58
2022-09-04T00:20:51.703Z,61.17
2022-09-04T00:23:25.485Z,60.69
2022-09-04T00:25:59.346Z,60.45
2022-09-04T00:28:35.853Z,60.69
2022-09-04T00:31:14.854Z,60.70
2022-09-04T00:33:52.751Z,61.28
2022-09-04T00:36:23.574Z,61.32
2022-09-04T00:38:57.105Z,60.81
2022-09-04T00:41:31.020Z,61.07
2022-09-04T00:44:33.295Z,61.54
2022-09-04T00:47:27.326Z,61.23
2022-09-04T00:50:18.963Z,61.07
2022-09-04T00:53:02.414Z,61.33
2022-09-04T00:55:55.820Z,61.08
2022-09-04T00:58:49.487Z,61.54
2022-09-04T01:01:25.867Z,61.49
2022-09-04T01:04:24.607Z,61.70
2022-09-04T01:07:05.979Z,61.53
2022-09-04T01:09:57.158Z,61.45
2022-09-04T01:12:36.517Z,61.55
2022-09-04T01:15:14.596Z,61.60
2022-09-04T01:17:53.382Z,61.77
2022-09-04T01:20:32.283Z,61.47
2022-09-04T01:23:13.473Z,61.44
2022-09-04T01:25:56.730Z,61.20
2022-09-04T01:28:31.063Z,61.36
2022-09-04T01:31:08.465Z,61.52
2022-09-04T01:33:46.268Z,61.45
2022-09-04T01:36:22.716Z,61.65
2022-09-04T01:38:55.043Z,61.82
2022-09-04T01:41:29.246Z,61.52
2022-09-04T01:43:57.187Z,61.64
2022-09-04T01:46:58.158Z,61.44
2022-09-04T01:49:35.688Z,61.45
2022-09-04T01:52:36.637Z,61.63
2022-09-04T01:55:15.168Z,61.21
2022-09-04T01:58:03.900Z,61.33
2022-09-04T02:00:39.577Z,61.50
2022-09-04T02:03:16.140Z,61.60
2022-09-04T02:05:55.177Z,61.32
2022-09-04T02:08:36.479Z,61.43
2022-09-04T02:11:10.084Z,61.18
2022-09-04T02:13:56.406Z,61.44
2022-09-04T02:16:35.369Z,61.09
2022-09-04T02:19:13.432Z,61.53
2022-09-04T02:21:49.368Z,61.33
2022-09-04T02:24:25.462Z,61.28
2022-09-04T02:27:01.297Z,60.88
2022-09-04T02:29:36.523Z,60.97
2022-09-04T02:32:12.870Z,61.05
2022-09-04T02:34:49.261Z,61.11
2022-09-04T02:37:29.399Z,61.19
2022-09-04T02:40:11.988Z,61.54
2022-09-04T02:42:49.066Z,61.25
2022-09-04T02:45:28.136Z,61.26
2022-09-04T02:48:04.119Z,61.06
2022-09-04T02:50:46.219Z,61.24
2022-09-04T02:53:27.348Z,60.88
2022-09-04T02:56:10.909Z,61.32
2022-09-04T02:58:51.270Z,60.82
2022-09-04T03:01:27.682Z,61.38
2022-09-04T03:04:03.899Z,61.10
2022-09-04T03:06:49.505Z,61.36
2022-09-04T03:09:25.049Z,61.06
2022-09-04T03:12:01.580Z,60.86
2022-09-04T03:14:37.217Z,61.24
2022-09-04T03:17:14.657Z,60.85
2022-09-04T03:19:51.947Z,61.33
2022-09-04T03:22:25.252Z,61.03
2022-09-04T03:25:26.692Z,61.14
2022-09-04T03:27:54.581Z,61.12
2022-09-04T03:30:22.575Z,60.92
2022-09-04T03:33:03.009Z,61.35
2022-09-04T03:35:41.052Z,61.03
2022-09-04T03:38:20.784Z,61.17
2022-09-04T03:41:03.207Z,61.07
2022-09-04T03:43:51.109Z,61.46
2022-09-04T03:46:30.800Z,61.51
2022-09-04T03:49:16.584Z,61.38
2022-09-04T03:52:00.481Z,61.82
2022-09-04T03:54:45.042Z,62.07
2022-09-04T03:57:27.454Z,62.35
2022-09-04T04:00:06.168Z,62.74
2022-09-04T04:02:48.133Z,62.33
2022-09-04T04:05:37.232Z,62.45
2022-09-04T04:08:31.103Z,62.24
2022-09-04T04:11:10.444Z,62.08
2022-09-04T04:13:55.339Z,62.06
2022-09-04T04:16:40.870Z,62.41
2022-09-04T04:19:23.862Z,62.70
2022-09-04T04:22:05.505Z,62.18
2022-09-04T04:24:57.586Z,62.48
2022-09-04T04:27:44.360Z,62.38
2022-09-04T04:30:15.534Z,62.35
2022-09-04T04:33:01.541Z,62.50
2022-09-04T04:35:36.779Z,62.17
2022-09-04T04:38:19.531Z,62.32
2022-09-04T04:41:06.382Z,62.38
2022-09-04T04:43:47.516Z,62.89
2022-09-04T04:46:20.494Z,62.83
2022-09-04T04:49:05.495Z,62.77
2022-09-04T04:51:51.670Z,62.20
2022-09-04T04:54:33.160Z,62.48
2022-09-04T04:57:09.104Z,62.52
2022-09-04T04:59:47.849Z,62.40
2022-09-04T05:02:24.012Z,62.21
2022-09-04T05:05:13.997Z,61.61
2022-09-04T05:07:49.397Z,61.79
2022-09-04T05:10:24.258Z,61.75
2022-09-04T05:13:03.208Z,61.78
2022-09-04T05:15:58.109Z,62.22
2022-09-04T05:18:33.101Z,62.01
2022-09-04T05:21:10.241Z,61.38
2022-09-04T05:23:45.017Z,61.20
2022-09-04T05:26:23.478Z,61.04
2022-09-04T05:28:59.541Z,60.40
2022-09-04T05:31:38.390Z,60.66
2022-09-04T05:34:12.779Z,60.17
2022-09-04T05:36:51.564Z,59.90
2022-09-04T05:39:27.725Z,59.97
2022-09-04T05:42:07.992Z,59.43
2022-09-04T05:44:46.343Z,59.28
2022-09-04T05:47:30.331Z,59.17
2022-09-04T05:50:14.158Z,58.36
2022-09-04T05:52:58.072Z,58.04
2022-09-04T05:55:52.688Z,58.13
2022-09-04T05:58:46.133Z,57.70
2022-09-04T06:01:29.942Z,57.34
2022-09-04T06:04:25.940Z,56.97
2022-09-04T06:07:06.670Z,56.64
2022-09-04T06:09:49.458Z,56.57
2022-09-04T06:12:36.699Z,56.59
2022-09-04T06:15:16.050Z,55.72
2022-09-04T06:18:16.679Z,55.08
2022-09-04T06:20:59.364Z,55.00
2022-09-04T06:23:51.349Z,54.49
2022-09-04T06:26:43.722Z,54.21
2022-09-04T06:29:41.153Z,54.01
2022-09-04T06:32:32.151Z,53.20
2022-09-04T06:35:27.097Z,53.25
2022-09-04T06:38:09.111Z,52.91
2022-09-04T06:40:49.793Z,52.45
2022-09-04T06:43:29.671Z,52.41
2022-09-04T06:46:09.783Z,52.18
2022-09-04T06:48:51.154Z,51.77
2022-09-04T06:51:32.444Z,51.55
2022-09-04T06:54:11.331Z,50.93
2022-09-04T06:57:05.858Z,50.72
2022-09-04T06:59:55.072Z,50.50
2022-09-04T07:02:45.015Z,50.29
2022-09-04T07:05:25.392Z,49.83
2022-09-04T07:08:02.692Z,50.05
2022-09-04T07:10:34.660Z,49.53
2022-09-04T07:13:29.153Z,49.37
2022-09-04T07:16:10.805Z,49.02
2022-09-04T07:18:55.525Z,46.29
2022-09-04T07:21:33.562Z,42.44
2022-09-04T07:24:07.191Z,39.61
2022-09-04T07:26:41.002Z,36.96
2022-09-04T07:29:33.313Z,35.23
2022-09-04T07:32:08.755Z,33.39
2022-09-04T07:34:45.041Z,32.44
2022-09-04T07:37:27.358Z,32.10
2022-09-04T07:40:08.347Z,31.02
2022-09-04T07:42:42.988Z,31.65
2022-09-04T07:45:23.212Z,31.54
2022-09-04T07:47:59.302Z,30.99
2022-09-04T07:50:35.328Z,31.24
2022-09-04T07:53:20.215Z,30.98
2022-09-04T07:55:50.892Z,31.13
2022-09-04T07:58:33.195Z,30.54
2022-09-04T08:01:24.351Z,29.96
2022-09-04T08:04:10.219Z,29.62
2022-09-04T08:06:45.706Z,29.24
2022-09-04T08:09:33.693Z,29.09
2022-09-04T08:12:44.825Z,29.91
2022-09-04T08:15:20.012Z,30.02
2022-09-04T08:18:11.736Z,29.76
2022-09-04T08:20:46.929Z,29.45
2022-09-04T08:23:41.588Z,28.76
2022-09-04T08:26:21.044Z,28.78
2022-09-04T08:29:15.844Z,28.01
2022-09-04T08:31:52.548Z,27.79
2022-09-04T08:34:47.735Z,27.76
2022-09-04T08:37:26.047Z,28.42
2022-09-04T08:40:11.990Z,30.11
2022-09-04T08:43:16.506Z,30.29
2022-09-04T08:46:29.058Z,30.14
2022-09-04T08:49:46.425Z,30.21
2022-09-04T08:52:45.123Z,29.02
2022-09-04T08:55:41.224Z,28.27
2022-09-04T08:58:47.615Z,28.40
2022-09-04T09:02:03.505Z,26.91
2022-09-04T09:05:18.634Z,26.40
2022-09-04T09:08:17.121Z,26.43
2022-09-04T09:11:03.754Z,26.03
2022-09-04T09:14:01.304Z,27.19
2022-09-04T09:16:43.838Z,27.03
2022-09-04T09:19:33.978Z,26.29
2022-09-04T09:22:50.311Z,27.80
2022-09-04T09:25:21.251Z,27.36
2022-09-04T09:28:24.772Z,27.35
2022-09-04T09:31:17.083Z,27.97
2022-09-04T09:34:15.374Z,28.03
2022-09-04T09:37:17.913Z,28.50
2022-09-04T09:40:14.313Z,29.79
2022-09-04T09:43:00.175Z,30.65
2022-09-04T09:46:10.701Z,32.46
2022-09-04T09:49:14.797Z,33.31
2022-09-04T09:52:09.629Z,34.41
2022-09-04T09:55:04.543Z,34.31
2022-09-04T09:57:55.810Z,34.30
2022-09-04T10:00:27.644Z,33.92
2022-09-04T10:03:35.120Z,33.94
2022-09-04T10:06:34.108Z,34.91
2022-09-04T10:09:31.220Z,34.09
2022-09-04T10:12:41.028Z,34.28
2022-09-04T10:15:37.656Z,34.67
2022-09-04T10:18:47.372Z,33.96
2022-09-04T10:22:07.767Z,34.29
2022-09-04T10:25:11.143Z,34.47
2022-09-04T10:28:26.030Z,34.07
2022-09-04T10:31:30.286Z,34.22
2022-09-04T10:34:24.131Z,34.24
2022-09-04T10:37:02.777Z,34.93
2022-09-04T10:40:04.899Z,34.95
2022-09-04T10:42:43.463Z,34.81
2022-09-04T10:45:22.247Z,34.15
2022-09-04T10:48:32.187Z,34.31
2022-09-04T10:51:22.316Z,34.53
2022-09-04T10:54:16.896Z,35.04
2022-09-04T10:56:55.298Z,34.56
2022-09-04T10:59:48.861Z,34.65
2022-09-04T11:02:34.929Z,35.07
2022-09-04T11:05:39.519Z,35.04
2022-09-04T11:08:27.585Z,35.24
2022-09-04T11:11:18.098Z,35.07
2022-09-04T11:14:30.905Z,35.45
2022-09-04T11:17:30.656Z,35.55
2022-09-04T11:20:25.519Z,35.63
2022-09-04T11:23:32.761Z,35.83
2022-09-04T11:26:47.780Z,35.79
2022-09-04T11:29:56.118Z,35.25
2022-09-04T11:33:02.978Z,35.73
2022-09-04T11:35:56.169Z,36.42
2022-09-04T11:39:08.422Z,36.25
2022-09-04T11:42:06.007Z,35.76
2022-09-04T11:44:52.187Z,35.97
2022-09-04T11:47:44.084Z,35.95
2022-09-04T11:50:24.272Z,36.00
2022-09-04T11:53:27.548Z,35.57
2022-09-04T11:56:12.782Z,35.52
2022-09-04T11:59:13.072Z,35.87
2022-09-04T12:02:03.834Z,35.46
2022-09-04T12:05:04.945Z,35.31
2022-09-04T12:07:49.579Z,36.09
2022-09-04T12:10:56.846Z,36.27
2022-09-04T12:13:40.119Z,35.88
2022-09-04T12:16:49.157Z,36.14
2022-09-04T12:19:51.688Z,35.70
2022-09-04T12:22:52.504Z,35.44
2022-09-04T12:25:53.964Z,35.49
2022-09-04T12:28:45.173Z,34.87
2022-09-04T12:31:34.269Z,34.44
2022-09-04T12:34:28.068Z,33.91
2022-09-04T12:37:27.584Z,34.18
2022-09-04T12:40:25.182Z,34.14
2022-09-04T12:43:02.744Z,34.53
2022-09-04T12:45:44.545Z,34.40
2022-09-04T12:48:26.299Z,34.09
2022-09-04T12:51:01.969Z,34.28
2022-09-04T12:53:54.676Z,33.89
2022-09-04T12:56:31.606Z,34.28
2022-09-04T12:59:19.129Z,34.04
2022-09-04T13:02:01.298Z,34.22
2022-09-04T13:04:39.296Z,34.12
2022-09-04T13:07:29.590Z,33.78
2022-09-04T13:10:08.978Z,33.48
2022-09-04T13:12:46.443Z,33.25
2022-09-04T13:15:24.388Z,33.63
2022-09-04T13:18:06.950Z,33.27
2022-09-04T13:20:44.003Z,32.54
2022-09-04T13:23:35.289Z,32.61
2022-09-04T13:26:29.776Z,32.42
2022-09-04T13:29:12.408Z,31.59
2022-09-04T13:31:54.992Z,31.91
2022-09-04T13:38:31.215Z,32.55
2022-09-04T13:41:30.178Z,32.99
2022-09-04T13:44:30.502Z,32.90
2022-09-04T13:47:04.585Z,33.25
2022-09-04T13:49:40.050Z,32.20
2022-09-04T13:52:13.410Z,32.00
2022-09-04T13:54:48.123Z,31.73
2022-09-04T13:57:21.034Z,31.33
2022-09-04T13:59:51.519Z,30.91
2022-09-04T14:02:24.552Z,31.24
2022-09-04T14:04:57.601Z,31.48
2022-09-04T14:07:29.370Z,31.69
2022-09-04T14:10:04.288Z,31.13
2022-09-04T14:13:07.040Z,32.15
2022-09-04T14:16:04.119Z,32.17
2022-09-04T14:18:50.807Z,32.31
2022-09-04T14:21:34.712Z,32.43
2022-09-04T14:24:12.104Z,32.67
2022-09-04T14:27:11.385Z,32.64
2022-09-04T14:29:54.240Z,32.58
2022-09-04T14:32:32.274Z,32.92
2022-09-04T14:35:10.383Z,32.75
2022-09-04T14:37:54.159Z,32.56
2022-09-04T14:40:28.102Z,32.32
2022-09-04T14:43:04.626Z,32.76
2022-09-04T14:45:55.342Z,32.67
2022-09-04T14:48:24.314Z,32.71
2022-09-04T14:50:54.766Z,32.79
2022-09-04T14:53:27.303Z,33.07
2022-09-04T14:56:18.657Z,33.11
2022-09-04T14:58:55.214Z,32.83
2022-09-04T15:01:25.420Z,32.58
2022-09-04T15:04:00.158Z,32.71
2022-09-04T15:06:41.032Z,32.61
2022-09-04T15:09:23.269Z,32.64
2022-09-04T15:12:08.905Z,32.66
2022-09-04T15:14:46.733Z,32.90
2022-09-04T15:17:24.371Z,32.69
2022-09-04T15:19:58.754Z,32.23
2022-09-04T15:22:32.674Z,32.30
2022-09-04T15:25:05.626Z,32.62
2022-09-04T15:27:43.387Z,31.90
2022-09-04T15:30:20.702Z,32.08
2022-09-04T15:32:50.498Z,32.15
2022-09-04T15:35:24.320Z,32.14
2022-09-04T15:38:07.372Z,32.33
2022-09-04T15:40:39.083Z,32.70
2022-09-04T15:43:18.699Z,32.51
2022-09-04T15:45:58.779Z,32.36
2022-09-04T15:48:37.980Z,33.11
2022-09-04T15:51:19.085Z,32.75
2022-09-04T15:53:54.111Z,32.82
2022-09-04T15:56:34.995Z,32.31
2022-09-04T15:59:12.168Z,32.67
2022-09-04T16:01:50.905Z,32.19
2022-09-04T16:04:29.567Z,32.90
2022-09-04T16:07:20.658Z,32.87
2022-09-04T16:09:53.485Z,32.76
2022-09-04T16:12:25.086Z,33.62
2022-09-04T16:14:59.993Z,33.21
2022-09-04T16:17:34.669Z,33.41
2022-09-04T16:20:08.350Z,33.21
2022-09-04T16:22:44.602Z,33.63
2022-09-04T16:25:26.420Z,33.39
2022-09-04T16:28:02.344Z,33.26
2022-09-04T16:30:35.180Z,33.52
2022-09-04T16:33:20.540Z,33.64
2022-09-04T16:36:00.107Z,33.58
2022-09-04T16:38:33.395Z,34.06
2022-09-04T16:41:10.996Z,34.06
2022-09-04T16:43:39.463Z,34.46
2022-09-04T16:46:13.628Z,34.43
2022-09-04T16:48:53.574Z,34.79
2022-09-04T16:51:40.020Z,34.76
2022-09-04T16:54:18.287Z,34.76
2022-09-04T16:56:50.880Z,34.87
2022-09-04T16:59:26.140Z,35.26
2022-09-04T17:02:01.776Z,35.69
2022-09-04T17:04:40.131Z,35.71
2022-09-04T17:07:19.121Z,35.70
2022-09-04T17:09:56.680Z,36.15
2022-09-04T17:12:35.013Z,36.58
2022-09-04T17:15:14.258Z,36.27
2022-09-04T17:17:43.381Z,36.52
2022-09-04T17:20:23.364Z,36.65
2022-09-04T17:28:58.634Z,36.76
2022-09-04T17:29:10.937Z,36.85
2022-09-04T17:29:29.622Z,36.91
2022-09-04T17:31:53.838Z,37.45
2022-09-04T17:40:42.888Z,37.27
2022-09-04T17:40:51.619Z,37.85
2022-09-04T17:40:54.775Z,37.44
2022-09-04T17:43:24.177Z,37.86
2022-09-04T17:46:07.695Z,38.41
2022-09-04T17:48:41.958Z,38.06
2022-09-04T17:51:18.058Z,38.22
2022-09-04T17:53:53.416Z,38.25
2022-09-04T17:56:27.574Z,38.50
2022-09-04T17:59:03.383Z,38.89
2022-09-04T18:01:37.663Z,38.80
2022-09-04T18:04:22.622Z,39.16
2022-09-04T18:07:00.246Z,39.27
2022-09-04T18:09:38.020Z,39.42
2022-09-04T18:12:12.757Z,39.59
2022-09-04T18:14:53.148Z,39.58
2022-09-04T18:17:45.849Z,39.93
2022-09-04T18:20:24.280Z,39.92
2022-09-04T18:23:18.172Z,39.51
2022-09-04T18:25:52.384Z,40.06
2022-09-04T18:28:27.926Z,40.25
2022-09-04T18:37:08.540Z,39.97
2022-09-04T18:37:21.334Z,39.98
2022-09-04T18:37:44.085Z,40.13
2022-09-04T18:40:09.451Z,40.21
2022-09-04T18:50:20.387Z,39.91
2022-09-04T18:50:33.640Z,40.50
2022-09-04T18:50:53.242Z,40.23
2022-09-04T18:51:30.538Z,40.54
2022-09-04T18:54:04.143Z,40.52
2022-09-04T18:56:37.094Z,40.80
2022-09-04T18:59:12.246Z,40.61
2022-09-04T19:01:44.315Z,40.85
2022-09-04T19:04:36.174Z,40.87
2022-09-04T19:07:08.300Z,40.70
2022-09-04T19:09:56.940Z,40.87
2022-09-04T19:12:33.648Z,41.29
2022-09-04T19:15:36.269Z,41.19
2022-09-04T19:18:14.303Z,41.42
2022-09-04T19:20:54.180Z,41.26
2022-09-04T19:23:30.342Z,41.52
2022-09-04T19:26:03.215Z,41.70
2022-09-04T19:28:50.913Z,41.61
2022-09-04T19:31:32.883Z,41.77
2022-09-04T19:34:08.815Z,41.70
2022-09-04T19:36:43.775Z,41.91
2022-09-04T19:45:55.600Z,41.56
2022-09-04T19:45:59.171Z,41.87
2022-09-04T19:46:26.240Z,41.99
2022-09-04T19:48:21.460Z,42.18
2022-09-04T19:53:22.657Z,42.20
2022-09-04T19:53:55.159Z,42.26
2022-09-04T19:56:32.615Z,42.47
2022-09-04T19:59:27.256Z,42.30
2022-09-04T20:01:58.217Z,42.49
2022-09-04T20:04:41.237Z,42.57
2022-09-04T20:07:14.168Z,42.56
2022-09-04T20:09:47.175Z,42.64
2022-09-04T20:12:22.171Z,42.69
2022-09-04T20:14:55.251Z,43.07
2022-09-04T20:17:45.891Z,42.94
2022-09-04T20:20:21.407Z,42.96
2022-09-04T20:22:53.293Z,42.98
2022-09-04T20:25:46.663Z,43.29
2022-09-04T20:28:30.298Z,43.37
2022-09-04T20:31:28.736Z,43.47
2022-09-04T20:34:16.755Z,43.45
2022-09-04T20:36:51.241Z,43.61
2022-09-04T20:39:24.704Z,43.81
2022-09-04T20:41:59.573Z,43.57
2022-09-04T20:44:51.117Z,43.62
2022-09-04T20:52:45.303Z,43.37
2022-09-04T20:52:58.849Z,43.56
2022-09-04T20:53:30.708Z,43.45
2022-09-04T20:56:18.856Z,43.21
2022-09-04T21:03:05.247Z,43.36
2022-09-04T21:03:18.655Z,43.87
2022-09-04T21:05:33.784Z,43.83
2022-09-04T21:08:09.111Z,43.57
2022-09-04T21:10:48.346Z,43.83
2022-09-04T21:13:22.523Z,44.17
2022-09-04T21:16:00.257Z,44.20
2022-09-04T21:19:28.192Z,44.12
2022-09-04T21:22:14.073Z,44.56
2022-09-04T21:25:20.053Z,44.61
2022-09-04T21:28:07.329Z,45.00
2022-09-04T21:31:10.501Z,45.04
2022-09-04T21:33:48.366Z,45.45
2022-09-04T21:36:26.343Z,45.35
2022-09-04T21:39:38.576Z,45.53
2022-09-04T21:42:24.429Z,45.89
2022-09-04T21:45:34.456Z,46.33
2022-09-04T21:48:33.042Z,46.38
2022-09-04T21:51:28.773Z,46.34
2022-09-04T21:54:38.338Z,46.57
2022-09-04T22:02:27.020Z,46.66
2022-09-04T22:02:46.278Z,46.77
2022-09-04T22:03:36.233Z,46.92
2022-09-04T22:06:29.281Z,47.02
2022-09-04T22:13:34.659Z,46.92
2022-09-04T22:13:42.620Z,46.55
2022-09-04T22:15:00.519Z,46.84
2022-09-04T22:17:54.365Z,46.67
2022-09-04T22:20:42.261Z,46.85
2022-09-04T22:23:50.961Z,47.14
2022-09-04T22:26:45.414Z,47.30
2022-09-04T22:29:40.045Z,47.38
2022-09-04T22:32:40.389Z,47.17
2022-09-04T22:35:44.543Z,47.23
2022-09-04T22:38:35.040Z,47.32
2022-09-04T22:41:22.525Z,47.37
2022-09-04T22:44:00.848Z,47.38
2022-09-04T22:46:43.788Z,47.43
2022-09-04T22:49:33.855Z,47.26
2022-09-04T22:52:35.712Z,47.28
2022-09-04T22:55:39.696Z,47.50
2022-09-04T22:58:19.986Z,47.62
2022-09-04T23:01:05.124Z,47.51
2022-09-04T23:03:47.346Z,47.50
2022-09-04T23:10:26.774Z,47.46
2022-09-04T23:13:58.088Z,47.50
2022-09-04T23:13:59.988Z,47.36
2022-09-04T23:16:34.353Z,47.49
2022-09-04T23:20:50.189Z,47.53
2022-09-04T23:26:47.170Z,47.64
2022-09-04T23:26:48.658Z,47.84
2022-09-04T23:28:39.644Z,47.97
2022-09-04T23:31:39.648Z,48.10
2022-09-04T23:34:26.408Z,48.31
2022-09-04T23:37:10.479Z,48.30
2022-09-04T23:40:20.895Z,48.50
2022-09-04T23:43:07.561Z,48.62
2022-09-04T23:46:08.130Z,48.80
2022-09-04T23:49:11.160Z,48.71
2022-09-04T23:51:46.689Z,48.97
2022-09-04T23:54:49.144Z,49.21
2022-09-04T23:57:27.552Z,49.64
